sensor_id;sensor_type;location;lat;lon;timestamp;pressure;altitude;pressure_sealevel;temperature;humidity
30949;BME280;17637;51.984;21.208;2023-06-22T00:01:46;100364.94;;;20.71;76.58
30949;BME280;17637;51.984;21.208;2023-06-22T00:04:19;100339.91;;;20.58;76.49
30949;BME280;17637;51.984;21.208;2023-06-22T00:06:51;100346.78;;;20.68;76.79
30949;BME280;17637;51.984;21.208;2023-06-22T00:09:22;100358.25;;;20.83;76.23
30949;BME280;17637;51.984;21.208;2023-06-22T00:11:54;100331.91;;;20.75;75.87
30949;BME280;17637;51.984;21.208;2023-06-22T00:14:26;100325.16;;;20.72;76.15
30949;BME280;17637;51.984;21.208;2023-06-22T00:16:58;100344.03;;;20.84;76.06
30949;BME280;17637;51.984;21.208;2023-06-22T00:19:30;100349.03;;;20.79;76.12
30949;BME280;17637;51.984;21.208;2023-06-22T00:22:02;100357.97;;;20.78;76.93
30949;BME280;17637;51.984;21.208;2023-06-22T00:24:35;100277.81;;;20.24;77.53
30949;BME280;17637;51.984;21.208;2023-06-22T00:27:06;100316.56;;;20.47;77.25
30949;BME280;17637;51.984;21.208;2023-06-22T00:29:38;100345.00;;;20.60;76.68
30949;BME280;17637;51.984;21.208;2023-06-22T00:32:10;100354.31;;;20.79;76.03
30949;BME280;17637;51.984;21.208;2023-06-22T00:34:42;100323.97;;;20.52;76.47
30949;BME280;17637;51.984;21.208;2023-06-22T00:37:14;100339.50;;;20.70;75.99
30949;BME280;17637;51.984;21.208;2023-06-22T00:39:45;100342.25;;;20.53;76.28
30949;BME280;17637;51.984;21.208;2023-06-22T00:42:17;100330.72;;;20.31;76.85
30949;BME280;17637;51.984;21.208;2023-06-22T00:44:49;100325.94;;;20.26;76.80
30949;BME280;17637;51.984;21.208;2023-06-22T00:47:21;100314.09;;;20.22;76.48
30949;BME280;17637;51.984;21.208;2023-06-22T00:49:53;100329.75;;;20.24;77.01
30949;BME280;17637;51.984;21.208;2023-06-22T00:52:25;100350.16;;;20.30;76.69
30949;BME280;17637;51.984;21.208;2023-06-22T00:55:02;100326.69;;;20.12;76.33
30949;BME280;17637;51.984;21.208;2023-06-22T00:57:34;100322.94;;;20.06;76.37
30949;BME280;17637;51.984;21.208;2023-06-22T01:00:09;100332.09;;;20.19;76.77
30949;BME280;17637;51.984;21.208;2023-06-22T01:02:43;100319.53;;;19.97;76.77
30949;BME280;17637;51.984;21.208;2023-06-22T01:05:19;100308.56;;;19.86;76.92
30949;BME280;17637;51.984;21.208;2023-06-22T01:10:55;100340.06;;;20.10;76.54
30949;BME280;17637;51.984;21.208;2023-06-22T01:13:45;100318.69;;;19.97;76.79
30949;BME280;17637;51.984;21.208;2023-06-22T01:16:25;100331.00;;;20.05;76.62
30949;BME280;17637;51.984;21.208;2023-06-22T01:19:01;100310.84;;;19.80;77.24
30949;BME280;17637;51.984;21.208;2023-06-22T01:21:37;100307.72;;;19.85;76.83
30949;BME280;17637;51.984;21.208;2023-06-22T01:24:30;100325.78;;;19.96;77.20
30949;BME280;17637;51.984;21.208;2023-06-22T01:27:31;100326.16;;;19.85;77.58
30949;BME280;17637;51.984;21.208;2023-06-22T01:30:05;100310.56;;;19.67;77.86
30949;BME280;17637;51.984;21.208;2023-06-22T01:32:38;100332.09;;;19.87;76.79
30949;BME280;17637;51.984;21.208;2023-06-22T01:35:12;100329.63;;;19.77;77.11
30949;BME280;17637;51.984;21.208;2023-06-22T01:37:44;100303.81;;;19.64;77.75
30949;BME280;17637;51.984;21.208;2023-06-22T01:40:18;100330.13;;;19.81;77.42
30949;BME280;17637;51.984;21.208;2023-06-22T01:42:51;100313.00;;;19.77;77.71
30949;BME280;17637;51.984;21.208;2023-06-22T01:45:24;100315.63;;;19.77;77.85
30949;BME280;17637;51.984;21.208;2023-06-22T01:47:57;100305.78;;;19.71;76.44
30949;BME280;17637;51.984;21.208;2023-06-22T01:50:28;100321.41;;;19.72;78.66
30949;BME280;17637;51.984;21.208;2023-06-22T01:53:01;100306.75;;;19.70;78.44
30949;BME280;17637;51.984;21.208;2023-06-22T01:55:33;100325.03;;;19.71;78.66
30949;BME280;17637;51.984;21.208;2023-06-22T01:58:05;100278.88;;;19.35;77.71
30949;BME280;17637;51.984;21.208;2023-06-22T02:00:37;100325.56;;;19.58;78.92
30949;BME280;17637;51.984;21.208;2023-06-22T02:03:17;100329.19;;;19.65;78.62
30949;BME280;17637;51.984;21.208;2023-06-22T02:05:58;100313.25;;;19.50;78.27
30949;BME280;17637;51.984;21.208;2023-06-22T02:08:41;100325.63;;;19.50;78.05
30949;BME280;17637;51.984;21.208;2023-06-22T02:11:13;100338.78;;;19.50;79.40
30949;BME280;17637;51.984;21.208;2023-06-22T02:13:46;100310.38;;;19.21;79.19
30949;BME280;17637;51.984;21.208;2023-06-22T02:16:19;100345.72;;;19.51;78.36
30949;BME280;17637;51.984;21.208;2023-06-22T02:18:51;100337.19;;;19.32;79.08
30949;BME280;17637;51.984;21.208;2023-06-22T02:21:24;100353.47;;;19.28;79.55
30949;BME280;17637;51.984;21.208;2023-06-22T02:23:55;100345.09;;;19.16;79.64
30949;BME280;17637;51.984;21.208;2023-06-22T02:26:27;100370.09;;;19.45;79.18
30949;BME280;17637;51.984;21.208;2023-06-22T02:28:59;100378.97;;;19.52;79.14
30949;BME280;17637;51.984;21.208;2023-06-22T02:31:31;100376.66;;;19.49;78.93
30949;BME280;17637;51.984;21.208;2023-06-22T02:34:03;100379.44;;;19.56;78.95
30949;BME280;17637;51.984;21.208;2023-06-22T02:36:35;100379.97;;;19.51;78.83
30949;BME280;17637;51.984;21.208;2023-06-22T02:39:07;100379.66;;;19.46;79.62
30949;BME280;17637;51.984;21.208;2023-06-22T02:41:39;100345.75;;;19.34;78.67
30949;BME280;17637;51.984;21.208;2023-06-22T02:44:10;100348.34;;;19.43;78.80
30949;BME280;17637;51.984;21.208;2023-06-22T02:46:42;100391.47;;;19.58;79.50
30949;BME280;17637;51.984;21.208;2023-06-22T02:49:14;100356.25;;;19.51;78.68
30949;BME280;17637;51.984;21.208;2023-06-22T02:51:47;100371.38;;;19.57;78.94
30949;BME280;17637;51.984;21.208;2023-06-22T02:54:19;100385.66;;;19.71;78.95
30949;BME280;17637;51.984;21.208;2023-06-22T02:56:52;100393.88;;;19.76;78.84
30949;BME280;17637;51.984;21.208;2023-06-22T02:59:25;100383.56;;;19.66;78.17
30949;BME280;17637;51.984;21.208;2023-06-22T03:01:58;100395.09;;;19.65;78.77
30949;BME280;17637;51.984;21.208;2023-06-22T03:04:39;100377.44;;;19.66;78.15
30949;BME280;17637;51.984;21.208;2023-06-22T03:07:11;100387.50;;;19.62;78.09
30949;BME280;17637;51.984;21.208;2023-06-22T03:09:43;100386.53;;;19.47;79.27
30949;BME280;17637;51.984;21.208;2023-06-22T03:12:15;100393.97;;;19.51;79.01
30949;BME280;17637;51.984;21.208;2023-06-22T03:14:46;100415.66;;;19.70;78.69
30949;BME280;17637;51.984;21.208;2023-06-22T03:17:18;100412.16;;;19.78;78.62
30949;BME280;17637;51.984;21.208;2023-06-22T03:19:50;100403.47;;;19.61;79.09
30949;BME280;17637;51.984;21.208;2023-06-22T03:22:22;100415.81;;;19.68;78.92
30949;BME280;17637;51.984;21.208;2023-06-22T03:24:54;100392.63;;;19.56;78.31
30949;BME280;17637;51.984;21.208;2023-06-22T03:27:26;100418.50;;;19.60;79.06
30949;BME280;17637;51.984;21.208;2023-06-22T03:29:57;100364.84;;;19.28;79.28
30949;BME280;17637;51.984;21.208;2023-06-22T03:32:29;100426.69;;;19.74;79.29
30949;BME280;17637;51.984;21.208;2023-06-22T03:35:01;100394.41;;;19.63;79.45
30949;BME280;17637;51.984;21.208;2023-06-22T03:37:34;100384.44;;;19.42;79.55
30949;BME280;17637;51.984;21.208;2023-06-22T03:40:06;100400.19;;;19.67;79.14
30949;BME280;17637;51.984;21.208;2023-06-22T03:42:38;100425.34;;;19.78;79.43
30949;BME280;17637;51.984;21.208;2023-06-22T03:45:10;100426.69;;;19.74;80.02
30949;BME280;17637;51.984;21.208;2023-06-22T03:47:42;100421.09;;;19.68;80.30
30949;BME280;17637;51.984;21.208;2023-06-22T03:50:14;100395.56;;;19.61;80.00
30949;BME280;17637;51.984;21.208;2023-06-22T03:52:46;100425.56;;;19.68;80.31
30949;BME280;17637;51.984;21.208;2023-06-22T03:55:21;100432.25;;;19.95;79.30
30949;BME280;17637;51.984;21.208;2023-06-22T03:57:54;100440.84;;;19.89;79.71
30949;BME280;17637;51.984;21.208;2023-06-22T04:00:28;100451.06;;;19.76;81.00
30949;BME280;17637;51.984;21.208;2023-06-22T04:03:01;100436.63;;;19.55;81.48
30949;BME280;17637;51.984;21.208;2023-06-22T04:05:33;100437.75;;;19.61;81.10
30949;BME280;17637;51.984;21.208;2023-06-22T04:08:05;100428.00;;;19.70;80.68
30949;BME280;17637;51.984;21.208;2023-06-22T04:10:37;100418.81;;;19.65;81.62
30949;BME280;17637;51.984;21.208;2023-06-22T04:13:09;100445.31;;;19.80;81.70
30949;BME280;17637;51.984;21.208;2023-06-22T04:15:41;100434.09;;;19.78;81.52
30949;BME280;17637;51.984;21.208;2023-06-22T04:18:13;100448.94;;;19.79;81.64
30949;BME280;17637;51.984;21.208;2023-06-22T04:20:45;100445.16;;;19.65;82.68
30949;BME280;17637;51.984;21.208;2023-06-22T04:23:18;100439.22;;;19.63;82.29
30949;BME280;17637;51.984;21.208;2023-06-22T04:25:50;100464.25;;;19.84;83.08
30949;BME280;17637;51.984;21.208;2023-06-22T04:28:23;100467.22;;;19.97;82.38
30949;BME280;17637;51.984;21.208;2023-06-22T04:30:58;100463.44;;;19.67;84.15
30949;BME280;17637;51.984;21.208;2023-06-22T04:33:34;100447.94;;;19.72;82.96
30949;BME280;17637;51.984;21.208;2023-06-22T04:36:06;100449.59;;;19.65;83.31
30949;BME280;17637;51.984;21.208;2023-06-22T04:38:37;100468.38;;;19.95;82.51
30949;BME280;17637;51.984;21.208;2023-06-22T04:41:09;100437.91;;;19.84;82.82
30949;BME280;17637;51.984;21.208;2023-06-22T04:43:45;100457.97;;;20.02;82.20
30949;BME280;17637;51.984;21.208;2023-06-22T04:46:25;100458.41;;;20.13;82.06
30949;BME280;17637;51.984;21.208;2023-06-22T04:48:57;100460.19;;;20.21;81.58
30949;BME280;17637;51.984;21.208;2023-06-22T04:51:29;100459.69;;;20.26;81.48
30949;BME280;17637;51.984;21.208;2023-06-22T04:54:02;100453.00;;;20.07;81.94
30949;BME280;17637;51.984;21.208;2023-06-22T04:56:34;100472.19;;;20.32;81.83
30949;BME280;17637;51.984;21.208;2023-06-22T04:59:06;100437.53;;;19.95;82.02
30949;BME280;17637;51.984;21.208;2023-06-22T05:01:38;100422.63;;;20.19;81.60
30949;BME280;17637;51.984;21.208;2023-06-22T05:04:10;100469.22;;;20.35;81.25
30949;BME280;17637;51.984;21.208;2023-06-22T05:06:42;100435.38;;;20.39;80.49
30949;BME280;17637;51.984;21.208;2023-06-22T05:09:14;100468.41;;;20.74;80.35
30949;BME280;17637;51.984;21.208;2023-06-22T05:11:46;100431.53;;;20.49;79.79
30949;BME280;17637;51.984;21.208;2023-06-22T05:14:18;100476.78;;;20.70;79.85
30949;BME280;17637;51.984;21.208;2023-06-22T05:16:50;100474.78;;;20.80;79.54
30949;BME280;17637;51.984;21.208;2023-06-22T05:19:23;100431.69;;;20.56;79.28
30949;BME280;17637;51.984;21.208;2023-06-22T05:21:55;100451.72;;;20.74;79.21
30949;BME280;17637;51.984;21.208;2023-06-22T05:24:27;100474.28;;;20.85;79.57
30949;BME280;17637;51.984;21.208;2023-06-22T05:26:59;100453.97;;;21.08;78.79
30949;BME280;17637;51.984;21.208;2023-06-22T05:29:30;100464.88;;;21.05;78.29
30949;BME280;17637;51.984;21.208;2023-06-22T05:32:03;100456.56;;;20.93;77.89
30949;BME280;17637;51.984;21.208;2023-06-22T05:34:35;100444.09;;;20.79;78.26
30949;BME280;17637;51.984;21.208;2023-06-22T05:37:07;100421.16;;;20.48;78.86
30949;BME280;17637;51.984;21.208;2023-06-22T05:39:41;100467.81;;;20.87;79.04
30949;BME280;17637;51.984;21.208;2023-06-22T05:42:13;100472.22;;;20.95;78.82
30949;BME280;17637;51.984;21.208;2023-06-22T05:44:44;100481.31;;;20.92;78.41
30949;BME280;17637;51.984;21.208;2023-06-22T05:47:16;100443.81;;;20.65;78.57
30949;BME280;17637;51.984;21.208;2023-06-22T05:49:49;100449.56;;;20.77;78.30
30949;BME280;17637;51.984;21.208;2023-06-22T05:52:21;100506.75;;;20.93;78.56
30949;BME280;17637;51.984;21.208;2023-06-22T05:54:53;100504.16;;;21.08;78.54
30949;BME280;17637;51.984;21.208;2023-06-22T05:57:25;100492.38;;;20.96;78.65
30949;BME280;17637;51.984;21.208;2023-06-22T05:59:56;100482.97;;;20.93;78.39
30949;BME280;17637;51.984;21.208;2023-06-22T06:02:28;100480.31;;;21.17;77.26
30949;BME280;17637;51.984;21.208;2023-06-22T06:05:00;100495.31;;;21.24;77.81
30949;BME280;17637;51.984;21.208;2023-06-22T06:07:34;100510.50;;;21.22;77.20
30949;BME280;17637;51.984;21.208;2023-06-22T06:10:06;100496.22;;;21.08;77.38
30949;BME280;17637;51.984;21.208;2023-06-22T06:12:38;100504.44;;;21.13;77.01
30949;BME280;17637;51.984;21.208;2023-06-22T06:15:10;100504.09;;;21.40;76.65
30949;BME280;17637;51.984;21.208;2023-06-22T06:17:52;100473.78;;;21.27;75.56
30949;BME280;17637;51.984;21.208;2023-06-22T06:20:25;100514.84;;;21.15;76.78
30949;BME280;17637;51.984;21.208;2023-06-22T06:22:59;100513.69;;;21.18;76.75
30949;BME280;17637;51.984;21.208;2023-06-22T06:25:31;100524.78;;;21.59;75.73
30949;BME280;17637;51.984;21.208;2023-06-22T06:28:03;100494.59;;;21.30;75.77
30949;BME280;17637;51.984;21.208;2023-06-22T06:30:35;100523.78;;;21.37;76.57
30949;BME280;17637;51.984;21.208;2023-06-22T06:33:08;100518.09;;;21.25;76.89
30949;BME280;17637;51.984;21.208;2023-06-22T06:35:40;100523.22;;;21.42;75.71
30949;BME280;17637;51.984;21.208;2023-06-22T06:38:12;100510.75;;;21.12;76.11
30949;BME280;17637;51.984;21.208;2023-06-22T06:40:44;100518.31;;;21.16;76.09
30949;BME280;17637;51.984;21.208;2023-06-22T06:43:16;100506.69;;;21.25;76.11
30949;BME280;17637;51.984;21.208;2023-06-22T06:45:48;100503.72;;;21.43;75.26
30949;BME280;17637;51.984;21.208;2023-06-22T06:48:23;100483.59;;;21.19;74.97
30949;BME280;17637;51.984;21.208;2023-06-22T06:50:55;100523.53;;;21.24;75.56
30949;BME280;17637;51.984;21.208;2023-06-22T06:53:26;100503.44;;;21.38;75.20
30949;BME280;17637;51.984;21.208;2023-06-22T06:55:59;100533.22;;;21.55;74.61
30949;BME280;17637;51.984;21.208;2023-06-22T06:58:32;100496.28;;;21.46;74.60
30949;BME280;17637;51.984;21.208;2023-06-22T07:01:04;100528.56;;;21.80;74.21
30949;BME280;17637;51.984;21.208;2023-06-22T07:03:36;100502.72;;;21.67;73.65
30949;BME280;17637;51.984;21.208;2023-06-22T07:06:08;100514.75;;;21.70;73.93
30949;BME280;17637;51.984;21.208;2023-06-22T07:08:40;100521.94;;;21.61;74.16
30949;BME280;17637;51.984;21.208;2023-06-22T07:11:12;100516.06;;;21.89;72.97
30949;BME280;17637;51.984;21.208;2023-06-22T07:13:44;100511.34;;;21.99;73.02
30949;BME280;17637;51.984;21.208;2023-06-22T07:16:16;100525.97;;;22.10;72.74
30949;BME280;17637;51.984;21.208;2023-06-22T07:18:48;100498.84;;;21.78;73.00
30949;BME280;17637;51.984;21.208;2023-06-22T07:21:20;100519.75;;;22.03;72.72
30949;BME280;17637;51.984;21.208;2023-06-22T07:23:53;100524.56;;;22.29;72.74
30949;BME280;17637;51.984;21.208;2023-06-22T07:26:25;100534.44;;;22.65;71.03
30949;BME280;17637;51.984;21.208;2023-06-22T07:28:57;100521.47;;;22.55;70.50
30949;BME280;17637;51.984;21.208;2023-06-22T07:31:29;100488.88;;;22.91;69.19
30949;BME280;17637;51.984;21.208;2023-06-22T07:34:01;100504.34;;;23.09;69.02
30949;BME280;17637;51.984;21.208;2023-06-22T07:36:33;100520.47;;;23.30;67.58
30949;BME280;17637;51.984;21.208;2023-06-22T07:39:07;100478.97;;;22.78;68.25
30949;BME280;17637;51.984;21.208;2023-06-22T07:41:40;100527.53;;;23.22;68.04
30949;BME280;17637;51.984;21.208;2023-06-22T07:44:15;100510.88;;;23.14;67.57
30949;BME280;17637;51.984;21.208;2023-06-22T07:46:47;100517.66;;;23.59;67.51
30949;BME280;17637;51.984;21.208;2023-06-22T07:49:19;100481.97;;;23.62;65.98
30949;BME280;17637;51.984;21.208;2023-06-22T07:51:52;100506.66;;;23.63;66.43
30949;BME280;17637;51.984;21.208;2023-06-22T07:54:24;100499.16;;;23.95;66.33
30949;BME280;17637;51.984;21.208;2023-06-22T07:56:56;100513.91;;;23.75;66.17
30949;BME280;17637;51.984;21.208;2023-06-22T07:59:27;100532.53;;;24.11;66.32
30949;BME280;17637;51.984;21.208;2023-06-22T08:01:59;100520.59;;;24.35;63.40
30949;BME280;17637;51.984;21.208;2023-06-22T08:04:31;100541.03;;;23.99;63.25
30949;BME280;17637;51.984;21.208;2023-06-22T08:07:05;100541.75;;;24.63;61.83
30949;BME280;17637;51.984;21.208;2023-06-22T08:09:37;100545.63;;;24.61;61.43
30949;BME280;17637;51.984;21.208;2023-06-22T08:12:09;100544.28;;;24.71;61.16
30949;BME280;17637;51.984;21.208;2023-06-22T08:14:42;100538.44;;;24.48;62.73
30949;BME280;17637;51.984;21.208;2023-06-22T08:17:17;100530.56;;;24.68;61.96
30949;BME280;17637;51.984;21.208;2023-06-22T08:19:57;100536.22;;;24.58;62.38
30949;BME280;17637;51.984;21.208;2023-06-22T08:22:28;100533.22;;;24.68;59.40
30949;BME280;17637;51.984;21.208;2023-06-22T08:25:03;100541.44;;;24.73;57.05
30949;BME280;17637;51.984;21.208;2023-06-22T08:27:36;100532.69;;;25.06;56.86
30949;BME280;17637;51.984;21.208;2023-06-22T08:30:09;100529.66;;;25.09;58.55
30949;BME280;17637;51.984;21.208;2023-06-22T08:32:42;100498.59;;;25.30;58.02
30949;BME280;17637;51.984;21.208;2023-06-22T08:35:14;100528.38;;;24.78;55.90
30949;BME280;17637;51.984;21.208;2023-06-22T08:37:46;100500.34;;;24.69;56.35
30949;BME280;17637;51.984;21.208;2023-06-22T08:40:24;100499.56;;;25.02;55.12
30949;BME280;17637;51.984;21.208;2023-06-22T08:42:56;100505.38;;;25.39;53.03
30949;BME280;17637;51.984;21.208;2023-06-22T08:45:28;100496.13;;;25.35;54.74
30949;BME280;17637;51.984;21.208;2023-06-22T08:48:01;100525.56;;;26.00;55.21
30949;BME280;17637;51.984;21.208;2023-06-22T08:50:35;100497.19;;;25.47;55.88
30949;BME280;17637;51.984;21.208;2023-06-22T08:53:08;100533.16;;;26.10;53.75
30949;BME280;17637;51.984;21.208;2023-06-22T08:55:40;100495.28;;;25.95;49.05
30949;BME280;17637;51.984;21.208;2023-06-22T08:58:11;100498.59;;;25.83;49.45
30949;BME280;17637;51.984;21.208;2023-06-22T09:00:43;100506.63;;;26.42;52.06
30949;BME280;17637;51.984;21.208;2023-06-22T09:03:15;100474.31;;;26.32;50.68
30949;BME280;17637;51.984;21.208;2023-06-22T09:05:48;100512.44;;;26.26;48.63
30949;BME280;17637;51.984;21.208;2023-06-22T09:08:20;100487.84;;;26.24;48.90
30949;BME280;17637;51.984;21.208;2023-06-22T09:10:52;100486.66;;;25.99;47.58
30949;BME280;17637;51.984;21.208;2023-06-22T09:13:24;100504.94;;;26.48;47.86
30949;BME280;17637;51.984;21.208;2023-06-22T09:15:58;100510.94;;;26.43;47.47
30949;BME280;17637;51.984;21.208;2023-06-22T09:18:31;100491.66;;;26.41;46.08
30949;BME280;17637;51.984;21.208;2023-06-22T09:21:03;100521.91;;;25.95;46.55
30949;BME280;17637;51.984;21.208;2023-06-22T09:23:35;100522.34;;;25.58;47.28
30949;BME280;17637;51.984;21.208;2023-06-22T09:26:07;100495.75;;;25.45;48.55
30949;BME280;17637;51.984;21.208;2023-06-22T09:28:39;100527.03;;;25.90;48.17
30949;BME280;17637;51.984;21.208;2023-06-22T09:31:14;100517.22;;;25.83;48.04
30949;BME280;17637;51.984;21.208;2023-06-22T09:33:47;100533.53;;;26.27;46.84
30949;BME280;17637;51.984;21.208;2023-06-22T09:36:23;100526.31;;;26.41;47.87
30949;BME280;17637;51.984;21.208;2023-06-22T09:38:55;100505.88;;;26.15;47.64
30949;BME280;17637;51.984;21.208;2023-06-22T09:41:28;100524.75;;;25.93;46.18
30949;BME280;17637;51.984;21.208;2023-06-22T09:44:00;100480.69;;;26.17;47.17
30949;BME280;17637;51.984;21.208;2023-06-22T09:46:32;100516.09;;;26.31;46.65
30949;BME280;17637;51.984;21.208;2023-06-22T09:49:04;100534.41;;;26.08;44.63
30949;BME280;17637;51.984;21.208;2023-06-22T09:51:36;100502.84;;;25.98;42.91
30949;BME280;17637;51.984;21.208;2023-06-22T09:54:07;100496.91;;;26.09;43.41
30949;BME280;17637;51.984;21.208;2023-06-22T09:56:39;100513.50;;;26.04;41.98
30949;BME280;17637;51.984;21.208;2023-06-22T09:59:11;100501.81;;;26.12;41.07
30949;BME280;17637;51.984;21.208;2023-06-22T10:01:49;100512.47;;;26.19;40.32
30949;BME280;17637;51.984;21.208;2023-06-22T10:04:22;100529.81;;;26.35;40.04
30949;BME280;17637;51.984;21.208;2023-06-22T10:06:54;100489.66;;;26.30;40.62
30949;BME280;17637;51.984;21.208;2023-06-22T10:09:26;100540.00;;;26.51;39.27
30949;BME280;17637;51.984;21.208;2023-06-22T10:11:57;100523.28;;;26.24;40.12
30949;BME280;17637;51.984;21.208;2023-06-22T10:14:29;100504.84;;;26.23;39.00
30949;BME280;17637;51.984;21.208;2023-06-22T10:17:02;100525.06;;;26.44;39.37
30949;BME280;17637;51.984;21.208;2023-06-22T10:19:34;100468.84;;;26.07;41.63
30949;BME280;17637;51.984;21.208;2023-06-22T10:22:10;100466.75;;;26.22;42.43
30949;BME280;17637;51.984;21.208;2023-06-22T10:24:42;100489.91;;;26.22;41.84
30949;BME280;17637;51.984;21.208;2023-06-22T10:27:16;100498.56;;;26.10;42.02
30949;BME280;17637;51.984;21.208;2023-06-22T10:29:48;100505.53;;;26.57;43.52
30949;BME280;17637;51.984;21.208;2023-06-22T10:32:19;100495.13;;;26.42;40.80
30949;BME280;17637;51.984;21.208;2023-06-22T10:34:51;100519.22;;;26.67;39.74
30949;BME280;17637;51.984;21.208;2023-06-22T10:37:23;100487.69;;;26.57;38.92
30949;BME280;17637;51.984;21.208;2023-06-22T10:39:56;100476.09;;;26.38;38.89
30949;BME280;17637;51.984;21.208;2023-06-22T10:42:28;100482.72;;;26.74;38.25
30949;BME280;17637;51.984;21.208;2023-06-22T10:45:00;100483.81;;;26.92;38.39
30949;BME280;17637;51.984;21.208;2023-06-22T10:47:32;100480.06;;;27.06;39.31
30949;BME280;17637;51.984;21.208;2023-06-22T10:50:04;100475.41;;;26.95;37.52
30949;BME280;17637;51.984;21.208;2023-06-22T10:52:36;100487.38;;;26.40;38.76
30949;BME280;17637;51.984;21.208;2023-06-22T10:55:09;100486.34;;;26.41;39.64
30949;BME280;17637;51.984;21.208;2023-06-22T10:57:41;100495.31;;;26.92;39.54
30949;BME280;17637;51.984;21.208;2023-06-22T11:00:16;100501.97;;;26.76;39.21
30949;BME280;17637;51.984;21.208;2023-06-22T11:02:48;100490.50;;;26.76;38.03
30949;BME280;17637;51.984;21.208;2023-06-22T11:05:20;100494.47;;;26.98;38.81
30949;BME280;17637;51.984;21.208;2023-06-22T11:07:51;100482.16;;;26.59;38.12
30949;BME280;17637;51.984;21.208;2023-06-22T11:10:23;100466.69;;;26.42;38.87
30949;BME280;17637;51.984;21.208;2023-06-22T11:12:55;100436.38;;;26.75;38.34
30949;BME280;17637;51.984;21.208;2023-06-22T11:15:29;100494.59;;;26.72;39.99
30949;BME280;17637;51.984;21.208;2023-06-22T11:18:01;100476.00;;;26.97;40.58
30949;BME280;17637;51.984;21.208;2023-06-22T11:20:33;100473.28;;;27.29;39.88
30949;BME280;17637;51.984;21.208;2023-06-22T11:23:10;100467.66;;;27.44;38.64
30949;BME280;17637;51.984;21.208;2023-06-22T11:25:43;100481.16;;;26.92;38.65
30949;BME280;17637;51.984;21.208;2023-06-22T11:28:16;100486.75;;;27.15;38.79
30949;BME280;17637;51.984;21.208;2023-06-22T11:30:48;100465.50;;;26.77;39.07
30949;BME280;17637;51.984;21.208;2023-06-22T11:33:22;100463.56;;;27.16;39.47
30949;BME280;17637;51.984;21.208;2023-06-22T11:35:54;100464.66;;;27.33;39.11
30949;BME280;17637;51.984;21.208;2023-06-22T11:38:28;100434.38;;;27.46;41.29
30949;BME280;17637;51.984;21.208;2023-06-22T11:41:00;100474.13;;;27.55;39.20
30949;BME280;17637;51.984;21.208;2023-06-22T11:43:34;100459.91;;;27.61;39.06
30949;BME280;17637;51.984;21.208;2023-06-22T11:46:07;100458.41;;;27.46;39.50
30949;BME280;17637;51.984;21.208;2023-06-22T11:48:39;100425.19;;;27.42;39.90
30949;BME280;17637;51.984;21.208;2023-06-22T11:51:11;100461.38;;;27.57;38.37
30949;BME280;17637;51.984;21.208;2023-06-22T11:53:43;100446.81;;;27.78;39.85
30949;BME280;17637;51.984;21.208;2023-06-22T11:56:17;100429.13;;;27.58;38.52
30949;BME280;17637;51.984;21.208;2023-06-22T11:58:49;100471.44;;;27.55;38.19
30949;BME280;17637;51.984;21.208;2023-06-22T12:01:21;100474.59;;;27.70;37.60
30949;BME280;17637;51.984;21.208;2023-06-22T12:03:53;100464.63;;;27.08;39.18
30949;BME280;17637;51.984;21.208;2023-06-22T12:06:25;100479.69;;;27.53;39.43
30949;BME280;17637;51.984;21.208;2023-06-22T12:08:57;100466.94;;;27.30;40.28
30949;BME280;17637;51.984;21.208;2023-06-22T12:11:30;100461.88;;;27.22;40.21
30949;BME280;17637;51.984;21.208;2023-06-22T12:14:03;100476.97;;;27.34;39.08
30949;BME280;17637;51.984;21.208;2023-06-22T12:16:35;100456.25;;;27.30;38.85
30949;BME280;17637;51.984;21.208;2023-06-22T12:19:07;100456.25;;;27.30;39.68
30949;BME280;17637;51.984;21.208;2023-06-22T12:21:40;100465.53;;;27.71;39.92
30949;BME280;17637;51.984;21.208;2023-06-22T12:24:12;100464.22;;;27.99;39.87
30949;BME280;17637;51.984;21.208;2023-06-22T12:26:44;100447.84;;;27.77;38.50
30949;BME280;17637;51.984;21.208;2023-06-22T12:29:16;100455.31;;;27.87;39.01
30949;BME280;17637;51.984;21.208;2023-06-22T12:31:47;100465.25;;;27.98;38.87
30949;BME280;17637;51.984;21.208;2023-06-22T12:34:20;100441.81;;;27.81;40.07
30949;BME280;17637;51.984;21.208;2023-06-22T12:36:55;100450.34;;;27.90;39.18
30949;BME280;17637;51.984;21.208;2023-06-22T12:39:26;100455.25;;;27.93;39.50
30949;BME280;17637;51.984;21.208;2023-06-22T12:41:58;100446.03;;;27.27;38.89
30949;BME280;17637;51.984;21.208;2023-06-22T12:44:30;100442.84;;;27.43;40.43
30949;BME280;17637;51.984;21.208;2023-06-22T12:47:02;100462.44;;;27.74;39.77
30949;BME280;17637;51.984;21.208;2023-06-22T12:49:35;100409.28;;;27.73;40.09
30949;BME280;17637;51.984;21.208;2023-06-22T12:52:10;100425.88;;;27.75;38.43
30949;BME280;17637;51.984;21.208;2023-06-22T12:54:43;100424.53;;;27.22;38.57
30949;BME280;17637;51.984;21.208;2023-06-22T12:57:26;100442.19;;;27.66;38.75
30949;BME280;17637;51.984;21.208;2023-06-22T12:59:58;100422.53;;;27.42;39.36
30949;BME280;17637;51.984;21.208;2023-06-22T13:02:33;100467.47;;;27.82;38.59
30949;BME280;17637;51.984;21.208;2023-06-22T13:05:05;100452.50;;;27.63;37.59
30949;BME280;17637;51.984;21.208;2023-06-22T13:07:38;100459.22;;;27.47;39.12
30949;BME280;17637;51.984;21.208;2023-06-22T13:10:10;100410.75;;;27.25;38.97
30949;BME280;17637;51.984;21.208;2023-06-22T13:12:42;100440.41;;;27.35;38.48